Time,TemperatureF,DewpointF,PressureIn,WindDirection,WindDirectionDegrees,WindSpeedMPH,WindSpeedGustMPH,Humidity,HourlyPrecipIn,Conditions,Clouds,dailyrainin,SoftwareType,DateUTC
2013-01-13 00:01:00,4.5,-4.2,30.12,East,90,0.0,0.0,67,0.00,,,0.00,WUHU21623XXSP,2013-01-13 08:01:00,
2013-01-13 00:06:00,4.3,-4.4,30.12,ESE,112,0.0,0.0,67,0.00,,,0.00,WUHU21623XXSP,2013-01-13 08:06:00,
2013-01-13 00:11:00,4.1,-4.5,30.11,ESE,112,0.0,0.0,67,0.00,,,0.00,WUHU21623XXSP,2013-01-13 08:11:00,
2013-01-13 00:16:00,4.1,-4.5,30.12,ESE,112,0.0,0.0,67,0.00,,,0.00,WUHU21623XXSP,2013-01-13 08:16:00,
2013-01-13 00:21:00,3.9,-4.7,30.12,NE,45,0.0,0.0,67,0.00,,,0.00,WUHU21623XXSP,2013-01-13 08:21:00,
2013-01-13 00:26:00,3.9,-4.7,30.12,ENE,67,0.0,0.0,67,0.00,,,0.00,WUHU21623XXSP,2013-01-13 08:26:00,
2013-01-13 00:31:00,3.7,-4.8,30.12,SE,135,0.0,0.0,67,0.00,,,0.00,WUHU21623XXSP,2013-01-13 08:31:00,
2013-01-13 00:36:00,3.6,-4.8,30.12,NE,45,0.0,0.0,68,0.00,,,0.00,WUHU21623XXSP,2013-01-13 08:36:00,
2013-01-13 00:41:00,3.6,-4.7,30.13,NE,45,0.0,0.0,68,0.00,,,0.00,WUHU21623XXSP,2013-01-13 08:41:00,
2013-01-13 00:50:00,3.4,-4.8,30.13,NE,45,0.0,0.0,68,0.00,,,0.00,WUHU21623XXSP,2013-01-13 08:50:00,
2013-01-13 00:55:00,3.4,-4.8,30.13,ENE,67,0.0,0.0,68,0.00,,,0.00,WUHU21623XXSP,2013-01-13 08:55:00,
2013-01-13 01:00:00,3.4,-4.8,30.13,East,90,0.0,0.0,68,0.00,,,0.00,WUHU21623XXSP,2013-01-13 09:00:00,
2013-01-13 01:05:00,3.0,-5.2,30.13,SW,225,0.0,0.0,68,0.00,,,0.00,WUHU21623XXSP,2013-01-13 09:05:00,
2013-01-13 01:10:00,3.0,-5.2,30.13,South,180,0.0,0.0,68,0.00,,,0.00,WUHU21623XXSP,2013-01-13 09:10:00,
2013-01-13 01:18:00,2.8,-5.4,30.13,WSW,247,0.0,0.0,68,0.00,,,0.00,WUHU21623XXSP,2013-01-13 09:18:00,
2013-01-13 01:24:00,2.8,-5.4,30.14,NW,315,0.0,0.0,68,0.00,,,0.00,WUHU21623XXSP,2013-01-13 09:24:00,
2013-01-13 01:33:00,2.5,-5.4,30.14,NW,315,0.0,0.0,69,0.00,,,0.00,WUHU21623XXSP,2013-01-13 09:33:00,
2013-01-13 01:38:00,2.5,-5.4,30.14,NW,315,0.0,0.0,69,0.00,,,0.00,WUHU21623XXSP,2013-01-13 09:38:00,
2013-01-13 01:43:00,2.5,-5.4,30.14,SE,135,0.0,0.0,69,0.00,,,0.00,WUHU21623XXSP,2013-01-13 09:43:00,
2013-01-13 01:48:00,2.3,-5.4,30.14,ESE,112,0.0,0.0,69,0.00,,,0.00,WUHU21623XXSP,2013-01-13 09:48:00,
2013-01-13 01:53:00,2.3,-5.6,30.14,ESE,112,0.0,0.0,69,0.00,,,0.00,WUHU21623XXSP,2013-01-13 09:53:00,
2013-01-13 01:58:00,2.3,-5.6,30.14,ENE,67,0.0,0.0,69,0.00,,,0.00,WUHU21623XXSP,2013-01-13 09:58:00,
2013-01-13 02:03:00,2.1,-5.8,30.14,NE,45,0.0,0.0,69,0.00,,,0.00,WUHU21623XXSP,2013-01-13 10:03:00,
2013-01-13 02:09:00,1.9,-5.9,30.14,SE,135,0.0,0.0,69,0.00,,,0.00,WUHU21623XXSP,2013-01-13 10:09:00,
2013-01-13 02:14:00,1.9,-5.9,30.14,SE,135,0.0,0.0,69,0.00,,,0.00,WUHU21623XXSP,2013-01-13 10:14:00,
2013-01-13 02:19:00,1.9,-5.9,30.14,SE,135,0.0,0.0,69,0.00,,,0.00,WUHU21623XXSP,2013-01-13 10:19:00,
2013-01-13 02:24:00,1.8,-5.8,30.14,SE,135,0.0,0.0,70,0.00,,,0.00,WUHU21623XXSP,2013-01-13 10:24:00,
2013-01-13 02:29:00,1.8,-5.8,30.14,South,180,0.0,0.0,70,0.00,,,0.00,WUHU21623XXSP,2013-01-13 10:29:00,
2013-01-13 02:35:00,1.6,-6.0,30.14,SE,135,0.0,0.0,70,0.00,,,0.00,WUHU21623XXSP,2013-01-13 10:35:00,
2013-01-13 02:40:00,1.6,-6.0,30.14,ESE,112,0.0,0.0,70,0.00,,,0.00,WUHU21623XXSP,2013-01-13 10:40:00,
2013-01-13 02:45:00,1.4,-6.2,30.14,ESE,112,0.0,0.0,70,0.00,,,0.00,WUHU21623XXSP,2013-01-13 10:45:00,
2013-01-13 02:50:00,1.2,-6.2,30.14,SSW,202,0.0,0.0,70,0.00,,,0.00,WUHU21623XXSP,2013-01-13 10:50:00,
2013-01-13 02:55:00,1.2,-6.3,30.14,SSW,202,0.0,0.0,70,0.00,,,0.00,WUHU21623XXSP,2013-01-13 10:55:00,
2013-01-13 03:00:00,1.2,-6.3,30.14,West,270,0.0,0.0,70,0.00,,,0.00,WUHU21623XXSP,2013-01-13 11:00:00,
2013-01-13 03:05:00,1.2,-6.1,30.13,SSE,157,0.0,0.0,71,0.00,,,0.00,WUHU21623XXSP,2013-01-13 11:05:00,
2013-01-13 03:10:00,1.2,-6.1,30.13,SE,135,0.0,0.0,71,0.00,,,0.00,WUHU21623XXSP,2013-01-13 11:10:00,
2013-01-13 03:15:00,1.0,-6.3,30.13,East,90,0.0,0.0,71,0.00,,,0.00,WUHU21623XXSP,2013-01-13 11:15:00,
2013-01-13 03:20:00,0.9,-6.4,30.12,East,90,0.0,0.0,71,0.00,,,0.00,WUHU21623XXSP,2013-01-13 11:20:00,
2013-01-13 03:26:00,0.7,-6.6,30.13,ENE,67,0.0,0.0,71,0.00,,,0.00,WUHU21623XXSP,2013-01-13 11:26:00,
2013-01-13 03:31:00,0.5,-6.8,30.12,NE,45,0.0,0.0,71,0.00,,,0.00,WUHU21623XXSP,2013-01-13 11:31:00,
2013-01-13 03:37:00,0.3,-7.0,30.12,NE,45,0.0,0.0,71,0.00,,,0.00,WUHU21623XXSP,2013-01-13 11:37:00,
2013-01-13 03:42:00,0.1,-7.0,30.12,WSW,247,0.0,0.0,71,0.00,,,0.00,WUHU21623XXSP,2013-01-13 11:42:00,
2013-01-13 03:48:00,0.0,-7.3,30.11,SSE,157,0.0,0.0,71,0.00,,,0.00,WUHU21623XXSP,2013-01-13 11:48:00,
2013-01-13 03:53:00,-0.2,-7.3,30.11,SSE,157,0.0,0.0,71,0.00,,,0.00,WUHU21623XXSP,2013-01-13 11:53:00,
2013-01-13 03:58:00,-0.2,-7.2,30.10,NE,45,0.0,0.0,72,0.00,,,0.00,WUHU21623XXSP,2013-01-13 11:58:00,
2013-01-13 04:03:00,-0.6,-7.6,30.10,NE,45,0.0,0.0,72,0.00,,,0.00,WUHU21623XXSP,2013-01-13 12:03:00,
2013-01-13 04:08:00,-0.6,-7.6,30.10,SE,135,0.0,0.0,72,0.00,,,0.00,WUHU21623XXSP,2013-01-13 12:08:00,
2013-01-13 04:13:00,-0.6,-7.6,30.11,SSE,157,0.0,0.0,72,0.00,,,0.00,WUHU21623XXSP,2013-01-13 12:13:00,
2013-01-13 04:18:00,-0.8,-7.7,30.10,SE,135,0.0,0.0,72,0.00,,,0.00,WUHU21623XXSP,2013-01-13 12:18:00,
2013-01-13 04:23:00,-0.8,-7.7,30.10,SE,135,0.0,0.0,72,0.00,,,0.00,WUHU21623XXSP,2013-01-13 12:23:00,
2013-01-13 04:28:00,-0.8,-7.7,30.11,NE,45,0.0,0.0,72,0.00,,,0.00,WUHU21623XXSP,2013-01-13 12:28:00,
2013-01-13 04:33:00,-0.8,-7.4,30.11,NE,45,0.0,0.0,73,0.00,,,0.00,WUHU21623XXSP,2013-01-13 12:33:00,
2013-01-13 04:39:00,-1.1,-7.8,30.11,NE,45,0.0,0.0,73,0.00,,,0.00,WUHU21623XXSP,2013-01-13 12:39:00,
2013-01-13 04:44:00,-1.1,-7.8,30.11,NE,45,0.0,0.0,73,0.00,,,0.00,WUHU21623XXSP,2013-01-13 12:44:00,
2013-01-13 04:49:00,-1.1,-7.8,30.11,NE,45,0.0,0.0,73,0.00,,,0.00,WUHU21623XXSP,2013-01-13 12:49:00,
2013-01-13 04:54:00,-1.1,-7.8,30.11,NE,45,0.0,0.0,73,0.00,,,0.00,WUHU21623XXSP,2013-01-13 12:54:00,
2013-01-13 04:59:00,-1.1,-7.5,30.11,NE,45,0.0,0.0,74,0.00,,,0.00,WUHU21623XXSP,2013-01-13 12:59:00,
2013-01-13 05:04:00,-1.1,-7.8,30.11,NNE,22,0.0,0.0,73,0.00,,,0.00,WUHU21623XXSP,2013-01-13 13:04:00,
2013-01-13 05:09:00,-1.1,-7.5,30.11,NNE,22,0.0,0.0,74,0.00,,,0.00,WUHU21623XXSP,2013-01-13 13:09:00,
2013-01-13 05:14:00,-1.1,-7.5,30.11,NNE,22,0.0,0.0,74,0.00,,,0.00,WUHU21623XXSP,2013-01-13 13:14:00,
2013-01-13 05:20:00,-1.1,-7.5,30.11,NE,45,0.0,0.0,74,0.00,,,0.00,WUHU21623XXSP,2013-01-13 13:20:00,
2013-01-13 05:25:00,-1.1,-7.5,30.11,SSE,157,0.0,0.0,74,0.00,,,0.00,WUHU21623XXSP,2013-01-13 13:25:00,
2013-01-13 05:30:00,-1.1,-7.5,30.11,SE,135,0.0,0.0,74,0.00,,,0.00,WUHU21623XXSP,2013-01-13 13:30:00,
2013-01-13 05:35:00,-1.1,-7.5,30.11,NW,315,0.0,0.0,74,0.00,,,0.00,WUHU21623XXSP,2013-01-13 13:35:00,
2013-01-13 05:40:00,-1.1,-7.5,30.12,West,270,0.0,0.0,74,0.00,,,0.00,WUHU21623XXSP,2013-01-13 13:40:00,
2013-01-13 05:48:00,-1.1,-7.5,30.12,West,270,0.0,0.0,74,0.00,,,0.00,WUHU21623XXSP,2013-01-13 13:48:00,
2013-01-13 05:54:00,-1.3,-7.7,30.12,West,270,0.0,0.0,74,0.00,,,0.00,WUHU21623XXSP,2013-01-13 13:54:00,
2013-01-13 05:59:00,-1.3,-7.7,30.12,WNW,292,0.0,0.0,74,0.00,,,0.00,WUHU21623XXSP,2013-01-13 13:59:00,
2013-01-13 06:04:00,-1.3,-7.7,30.13,NW,315,0.0,0.0,74,0.00,,,0.00,WUHU21623XXSP,2013-01-13 14:04:00,
2013-01-13 06:09:00,-1.3,-7.7,30.13,NW,315,0.0,0.0,74,0.00,,,0.00,WUHU21623XXSP,2013-01-13 14:09:00,
2013-01-13 06:22:00,-1.3,-7.4,30.13,ESE,112,0.0,0.0,75,0.00,,,0.00,WUHU21623XXSP,2013-01-13 14:22:00,
2013-01-13 06:27:00,-1.3,-7.4,30.13,ENE,67,0.0,0.0,75,0.00,,,0.00,WUHU21623XXSP,2013-01-13 14:27:00,
2013-01-13 06:35:00,-1.5,-7.5,30.13,SSE,157,0.0,0.0,75,0.00,,,0.00,WUHU21623XXSP,2013-01-13 14:35:00,
2013-01-13 06:40:00,-1.5,-7.5,30.13,SE,135,0.0,0.0,75,0.00,,,0.00,WUHU21623XXSP,2013-01-13 14:40:00,
2013-01-13 06:45:00,-1.5,-7.5,30.12,ESE,112,0.0,0.0,75,0.00,,,0.00,WUHU21623XXSP,2013-01-13 14:45:00,
2013-01-13 06:50:00,-1.5,-7.5,30.13,SE,135,0.0,0.0,75,0.00,,,0.00,WUHU21623XXSP,2013-01-13 14:50:00,
2013-01-13 06:56:00,-1.7,-7.7,30.13,SSE,157,0.0,0.0,75,0.00,,,0.00,WUHU21623XXSP,2013-01-13 14:56:00,
2013-01-13 07:01:00,-1.7,-7.7,30.13,SSE,157,0.0,0.0,75,0.00,,,0.00,WUHU21623XXSP,2013-01-13 15:01:00,
2013-01-13 07:11:00,-1.7,-7.7,30.13,ESE,112,0.0,0.0,75,0.00,,,0.00,WUHU21623XXSP,2013-01-13 15:11:00,
2013-01-13 07:16:00,-1.7,-7.7,30.13,SE,135,0.0,0.0,75,0.00,,,0.00,WUHU21623XXSP,2013-01-13 15:16:00,
2013-01-13 07:21:00,-1.7,-7.7,30.14,NE,45,0.0,0.0,75,0.00,,,0.00,WUHU21623XXSP,2013-01-13 15:21:00,
2013-01-13 07:26:00,-1.7,-7.7,30.13,North,0,0.0,0.0,75,0.00,,,0.00,WUHU21623XXSP,2013-01-13 15:26:00,
2013-01-13 07:31:00,-1.7,-7.7,30.14,SSW,202,0.0,0.0,75,0.00,,,0.00,WUHU21623XXSP,2013-01-13 15:31:00,
2013-01-13 07:37:00,-1.8,-7.9,30.14,SW,225,0.0,0.0,75,0.00,,,0.00,WUHU21623XXSP,2013-01-13 15:37:00,
2013-01-13 07:42:00,-2.0,-7.8,30.14,WSW,247,0.0,0.0,76,0.00,,,0.00,WUHU21623XXSP,2013-01-13 15:42:00,
2013-01-13 07:47:00,-1.8,-7.6,30.14,West,270,0.0,0.0,76,0.00,,,0.00,WUHU21623XXSP,2013-01-13 15:47:00,
2013-01-13 07:52:00,-2.0,-7.8,30.14,WNW,292,0.0,0.0,76,0.00,,,0.00,WUHU21623XXSP,2013-01-13 15:52:00,
2013-01-13 07:57:00,-2.0,-7.8,30.14,WNW,292,0.0,0.0,76,0.00,,,0.00,WUHU21623XXSP,2013-01-13 15:57:00,
2013-01-13 08:05:00,-2.0,-7.8,30.14,WNW,292,0.0,0.0,76,0.00,,,0.00,WUHU21623XXSP,2013-01-13 16:05:00,
2013-01-13 08:10:00,-2.0,-7.8,30.14,NW,315,0.0,0.0,76,0.00,,,0.00,WUHU21623XXSP,2013-01-13 16:10:00,
2013-01-13 08:15:00,-1.5,-7.0,30.13,NW,315,0.0,0.0,77,0.00,,,0.00,WUHU21623XXSP,2013-01-13 16:15:00,
2013-01-13 08:20:00,-1.3,-7.0,30.13,NW,315,0.0,0.0,77,0.00,,,0.00,WUHU21623XXSP,2013-01-13 16:20:00,
2013-01-13 08:28:00,-0.6,-6.1,30.14,SW,225,0.0,0.0,77,0.00,,,0.00,WUHU21623XXSP,2013-01-13 16:28:00,
2013-01-13 08:33:00,-0.2,-5.8,30.15,WNW,292,0.0,0.0,77,0.00,,,0.00,WUHU21623XXSP,2013-01-13 16:33:00,
2013-01-13 08:38:00,0.3,-5.5,30.15,WNW,292,0.0,0.0,77,0.00,,,0.00,WUHU21623XXSP,2013-01-13 16:38:00,
2013-01-13 08:43:00,0.7,-5.1,30.15,WNW,292,0.0,0.0,77,0.00,,,0.00,WUHU21623XXSP,2013-01-13 16:43:00,
2013-01-13 08:48:00,0.9,-4.8,30.14,WNW,292,0.0,0.0,77,0.00,,,0.00,WUHU21623XXSP,2013-01-13 16:48:00,
2013-01-13 08:53:00,1.2,-4.5,30.15,WSW,247,0.0,0.0,77,0.00,,,0.00,WUHU21623XXSP,2013-01-13 16:53:00,
2013-01-13 08:58:00,1.9,-3.5,30.15,WNW,292,0.0,0.0,78,0.00,,,0.00,WUHU21623XXSP,2013-01-13 16:58:00,
2013-01-13 09:03:00,3.2,-1.9,30.15,WNW,292,0.0,0.0,79,0.00,,,0.00,WUHU21623XXSP,2013-01-13 17:03:00,
2013-01-13 09:08:00,4.1,-0.8,30.15,WNW,292,0.0,0.0,80,0.00,,,0.00,WUHU21623XXSP,2013-01-13 17:08:00,
2013-01-13 09:13:00,5.2,0.0,30.15,WNW,292,0.0,0.0,79,0.00,,,0.00,WUHU21623XXSP,2013-01-13 17:13:00,
2013-01-13 09:18:00,6.6,1.2,30.15,SSE,157,0.0,0.0,78,0.00,,,0.00,WUHU21623XXSP,2013-01-13 17:18:00,
2013-01-13 09:23:00,7.2,1.7,30.15,East,90,0.0,0.0,78,0.00,,,0.00,WUHU21623XXSP,2013-01-13 17:23:00,
2013-01-13 09:28:00,7.9,2.2,30.15,SSE,157,0.0,0.0,77,0.00,,,0.00,WUHU21623XXSP,2013-01-13 17:28:00,
2013-01-13 09:33:00,8.6,2.6,30.15,SSE,157,0.0,0.0,76,0.00,,,0.00,WUHU21623XXSP,2013-01-13 17:33:00,
2013-01-13 09:38:00,9.1,3.1,30.15,SE,135,0.0,0.0,76,0.00,,,0.00,WUHU21623XXSP,2013-01-13 17:38:00,
2013-01-13 09:47:00,10.6,4.1,30.15,ESE,112,0.0,0.0,75,0.00,,,0.00,WUHU21623XXSP,2013-01-13 17:47:00,
2013-01-13 09:52:00,10.9,4.5,30.15,SSE,157,0.0,0.0,75,0.00,,,0.00,WUHU21623XXSP,2013-01-13 17:52:00,
2013-01-13 09:57:00,11.5,5.0,30.15,South,180,0.0,0.0,75,0.00,,,0.00,WUHU21623XXSP,2013-01-13 17:57:00,
2013-01-13 10:02:00,12.0,5.3,30.15,West,270,0.0,0.0,74,0.00,,,0.00,WUHU21623XXSP,2013-01-13 18:02:00,
2013-01-13 10:08:00,12.0,5.0,30.15,West,270,0.0,0.0,73,0.00,,,0.00,WUHU21623XXSP,2013-01-13 18:08:00,
2013-01-13 10:17:00,12.7,5.7,30.16,WNW,292,0.0,0.0,73,0.00,,,0.00,WUHU21623XXSP,2013-01-13 18:17:00,
2013-01-13 10:22:00,13.1,6.0,30.16,East,90,0.0,0.0,73,0.00,,,0.00,WUHU21623XXSP,2013-01-13 18:22:00,
2013-01-13 10:28:00,13.8,6.8,30.16,West,270,0.0,0.0,73,0.00,,,0.00,WUHU21623XXSP,2013-01-13 18:28:00,
2013-01-13 10:33:00,14.2,7.1,30.16,SE,135,0.0,0.0,73,0.00,,,0.00,WUHU21623XXSP,2013-01-13 18:33:00,
2013-01-13 10:38:00,14.5,7.1,30.15,SSE,157,0.0,0.0,72,0.00,,,0.00,WUHU21623XXSP,2013-01-13 18:38:00,
2013-01-13 10:43:00,14.7,7.3,30.15,SSE,157,0.0,0.0,72,0.00,,,0.00,WUHU21623XXSP,2013-01-13 18:43:00,
2013-01-13 10:48:00,15.4,8.0,30.15,SSE,157,0.0,0.0,72,0.00,,,0.00,WUHU21623XXSP,2013-01-13 18:48:00,
2013-01-13 10:53:00,15.8,8.0,30.15,SE,135,1.3,1.3,71,0.00,,,0.00,WUHU21623XXSP,2013-01-13 18:53:00,
2013-01-13 10:58:00,16.7,8.5,30.15,South,180,0.9,1.3,70,0.00,,,0.00,WUHU21623XXSP,2013-01-13 18:58:00,
2013-01-13 11:03:00,16.9,8.6,30.15,South,180,0.9,0.9,70,0.00,,,0.00,WUHU21623XXSP,2013-01-13 19:03:00,
2013-01-13 11:08:00,17.2,9.1,30.15,SSW,202,1.1,1.1,70,0.00,,,0.00,WUHU21623XXSP,2013-01-13 19:08:00,
2013-01-13 11:13:00,17.8,9.3,30.15,SE,135,1.3,1.3,69,0.00,,,0.00,WUHU21623XXSP,2013-01-13 19:13:00,
2013-01-13 11:20:00,18.3,9.5,30.14,SSE,157,2.9,2.9,68,0.00,,,0.00,WUHU21623XXSP,2013-01-13 19:20:00,
2013-01-13 11:24:00,18.7,9.8,30.14,SE,135,0.0,2.9,68,0.00,,,0.00,WUHU21623XXSP,2013-01-13 19:24:00,
2013-01-13 11:29:00,19.6,10.6,30.14,SSE,157,0.0,0.0,69,0.00,,,0.00,WUHU21623XXSP,2013-01-13 19:29:00,
2013-01-13 11:34:00,20.5,11.2,30.14,NE,45,0.0,0.0,68,0.00,,,0.00,WUHU21623XXSP,2013-01-13 19:34:00,
2013-01-13 11:40:00,20.8,11.9,30.14,NE,45,0.0,0.0,68,0.00,,,0.00,WUHU21623XXSP,2013-01-13 19:40:00,
2013-01-13 11:45:00,21.4,12.4,30.14,SSE,157,0.0,0.0,68,0.00,,,0.00,WUHU21623XXSP,2013-01-13 19:45:00,
2013-01-13 11:50:00,22.6,13.6,30.14,SSE,157,0.0,0.0,68,0.00,,,0.00,WUHU21623XXSP,2013-01-13 19:50:00,
2013-01-13 11:55:00,23.4,13.8,30.14,SSE,157,0.0,0.0,67,0.00,,,0.00,WUHU21623XXSP,2013-01-13 19:55:00,
2013-01-13 12:00:00,23.5,14.0,30.14,SSE,157,0.0,0.0,66,0.00,,,0.00,WUHU21623XXSP,2013-01-13 20:00:00,
2013-01-13 12:05:00,24.4,13.9,30.14,SSE,157,0.0,0.0,65,0.00,,,0.00,WUHU21623XXSP,2013-01-13 20:05:00,
2013-01-13 12:10:00,24.4,14.3,30.14,WNW,292,0.0,0.0,65,0.00,,,0.00,WUHU21623XXSP,2013-01-13 20:10:00,
2013-01-13 12:15:00,24.6,14.4,30.14,South,180,0.0,0.0,65,0.00,,,0.00,WUHU21623XXSP,2013-01-13 20:15:00,
2013-01-13 12:20:00,25.2,14.6,30.14,West,270,0.0,0.0,64,0.00,,,0.00,WUHU21623XXSP,2013-01-13 20:20:00,
2013-01-13 12:25:00,25.5,15.0,30.13,NNW,337,0.0,0.0,64,0.00,,,0.00,WUHU21623XXSP,2013-01-13 20:25:00,
2013-01-13 12:32:00,26.1,14.8,30.13,SSW,202,1.3,1.3,62,0.00,,,0.00,WUHU21623XXSP,2013-01-13 20:32:00,
2013-01-13 12:37:00,26.2,14.6,30.13,SSW,202,2.0,2.0,61,0.00,,,0.00,WUHU21623XXSP,2013-01-13 20:37:00,
2013-01-13 12:49:00,26.2,14.6,30.13,North,0,0.0,0.0,61,0.00,,,0.00,WUHU21623XXSP,2013-01-13 20:49:00,
2013-01-13 12:58:00,26.8,15.1,30.12,SSE,157,0.0,0.0,61,0.00,,,0.00,WUHU21623XXSP,2013-01-13 20:58:00,
2013-01-13 13:04:00,27.3,15.3,30.12,South,180,0.0,0.0,60,0.00,,,0.00,WUHU21623XXSP,2013-01-13 21:04:00,
2013-01-13 13:11:00,27.5,15.0,30.12,SW,225,0.0,0.0,59,0.00,,,0.00,WUHU21623XXSP,2013-01-13 21:11:00,
2013-01-13 13:17:00,27.7,15.2,30.12,South,180,1.8,1.8,59,0.00,,,0.00,WUHU21623XXSP,2013-01-13 21:17:00,
2013-01-13 13:22:00,28.2,15.7,30.12,WNW,292,0.0,1.8,59,0.00,,,0.00,WUHU21623XXSP,2013-01-13 21:22:00,
2013-01-13 13:28:00,28.9,16.8,30.12,West,270,0.0,0.0,60,0.00,,,0.00,WUHU21623XXSP,2013-01-13 21:28:00,
2013-01-13 13:33:00,29.7,17.5,30.12,West,270,0.0,0.0,60,0.00,,,0.00,WUHU21623XXSP,2013-01-13 21:33:00,
2013-01-13 13:38:00,30.4,18.1,30.12,West,270,0.0,0.0,60,0.00,,,0.00,WUHU21623XXSP,2013-01-13 21:38:00,
2013-01-13 13:43:00,31.8,19.0,30.12,WNW,292,0.0,0.0,60,0.00,,,0.00,WUHU21623XXSP,2013-01-13 21:43:00,
2013-01-13 13:52:00,32.7,19.5,30.12,WNW,292,2.5,2.5,58,0.00,,,0.00,WUHU21623XXSP,2013-01-13 21:52:00,
2013-01-13 13:57:00,32.7,19.5,30.12,WNW,292,2.5,2.5,58,0.00,,,0.00,WUHU21623XXSP,2013-01-13 21:57:00,
2013-01-13 14:02:00,33.3,19.2,30.12,WNW,292,1.1,2.5,56,0.00,,,0.00,WUHU21623XXSP,2013-01-13 22:02:00,
2013-01-13 14:07:00,33.1,18.6,30.12,WNW,292,5.1,5.1,55,0.00,,,0.00,WUHU21623XXSP,2013-01-13 22:07:00,
2013-01-13 14:15:00,32.2,16.9,30.12,WSW,247,0.0,5.1,53,0.00,,,0.00,WUHU21623XXSP,2013-01-13 22:15:00,
2013-01-13 14:20:00,31.8,16.6,30.12,WNW,292,1.3,1.3,53,0.00,,,0.00,WUHU21623XXSP,2013-01-13 22:20:00,
2013-01-13 14:26:00,30.9,15.3,30.12,WNW,292,0.0,1.3,52,0.00,,,0.00,WUHU21623XXSP,2013-01-13 22:26:00,
2013-01-13 14:31:00,30.2,14.6,30.12,NW,315,0.0,0.0,52,0.00,,,0.00,WUHU21623XXSP,2013-01-13 22:31:00,
2013-01-13 14:36:00,29.7,14.2,30.12,WNW,292,3.6,3.6,52,0.00,,,0.00,WUHU21623XXSP,2013-01-13 22:36:00,
2013-01-13 14:41:00,28.9,13.5,30.13,NNE,22,2.7,3.6,52,0.00,,,0.00,WUHU21623XXSP,2013-01-13 22:41:00,
2013-01-13 14:46:00,28.0,12.4,30.13,NW,315,4.5,4.5,51,0.00,,,0.00,WUHU21623XXSP,2013-01-13 22:46:00,
2013-01-13 14:51:00,27.7,11.9,30.12,NNW,337,4.0,4.5,51,0.00,,,0.00,WUHU21623XXSP,2013-01-13 22:51:00,
2013-01-13 14:56:00,27.0,11.2,30.13,WNW,292,4.9,4.9,51,0.00,,,0.00,WUHU21623XXSP,2013-01-13 22:56:00,
2013-01-13 15:04:00,26.1,10.3,30.13,WNW,292,6.9,6.9,51,0.00,,,0.00,WUHU21623XXSP,2013-01-13 23:04:00,
2013-01-13 15:09:00,25.5,9.8,30.13,NW,315,6.3,6.9,51,0.00,,,0.00,WUHU21623XXSP,2013-01-13 23:09:00,
2013-01-13 15:14:00,25.2,9.5,30.13,NW,315,5.8,6.3,51,0.00,,,0.00,WUHU21623XXSP,2013-01-13 23:14:00,
2013-01-13 15:19:00,24.6,9.0,30.13,NNW,337,4.7,6.9,51,0.00,,,0.00,WUHU21623XXSP,2013-01-13 23:19:00,
2013-01-13 15:24:00,24.1,8.5,30.13,North,0,3.8,6.9,51,0.00,,,0.00,WUHU21623XXSP,2013-01-13 23:24:00,
2013-01-13 15:30:00,23.9,8.4,30.13,NW,315,8.1,8.1,51,0.00,,,0.00,WUHU21623XXSP,2013-01-13 23:30:00,
2013-01-13 15:35:00,23.4,7.9,30.14,WNW,292,6.3,8.1,52,0.00,,,0.00,WUHU21623XXSP,2013-01-13 23:35:00,
2013-01-13 15:40:00,23.0,8.1,30.14,WNW,292,6.3,6.3,52,0.00,,,0.00,WUHU21623XXSP,2013-01-13 23:40:00,
2013-01-13 15:47:00,22.8,8.2,30.14,NNW,337,4.7,6.3,53,0.00,,,0.00,WUHU21623XXSP,2013-01-13 23:47:00,
2013-01-13 15:52:00,22.6,8.0,30.14,WNW,292,2.5,4.7,53,0.00,,,0.00,WUHU21623XXSP,2013-01-13 23:52:00,
2013-01-13 15:57:00,22.6,8.0,30.14,North,0,5.1,5.1,53,0.00,,,0.00,WUHU21623XXSP,2013-01-13 23:57:00,
2013-01-13 16:02:00,22.1,7.9,30.14,WNW,292,4.5,5.1,54,0.00,,,0.00,WUHU21623XXSP,2013-01-14 00:02:00,
2013-01-13 16:07:00,22.1,7.9,30.14,West,270,3.8,4.5,54,0.00,,,0.00,WUHU21623XXSP,2013-01-14 00:07:00,
2013-01-13 16:13:00,21.9,7.7,30.14,WNW,292,3.6,3.8,54,0.00,,,0.00,WUHU21623XXSP,2013-01-14 00:13:00,
2013-01-13 16:18:00,21.9,7.7,30.14,WNW,292,2.0,3.6,54,0.00,,,0.00,WUHU21623XXSP,2013-01-14 00:18:00,
2013-01-13 16:24:00,21.7,7.9,30.14,NNW,337,4.5,4.5,55,0.00,,,0.00,WUHU21623XXSP,2013-01-14 00:24:00,
2013-01-13 16:29:00,21.6,7.8,30.14,NW,315,2.0,4.5,55,0.00,,,0.00,WUHU21623XXSP,2013-01-14 00:29:00,
2013-01-13 16:34:00,21.4,7.6,30.14,North,0,0.0,2.0,55,0.00,,,0.00,WUHU21623XXSP,2013-01-14 00:34:00,
2013-01-13 16:39:00,21.4,7.6,30.14,WNW,292,3.1,3.6,55,0.00,,,0.00,WUHU21623XXSP,2013-01-14 00:39:00,
2013-01-13 16:47:00,21.0,7.3,30.14,NE,45,1.6,3.1,55,0.00,,,0.00,WUHU21623XXSP,2013-01-14 00:47:00,
2013-01-13 16:52:00,20.8,7.3,30.14,NE,45,3.1,3.1,55,0.00,,,0.00,WUHU21623XXSP,2013-01-14 00:52:00,
2013-01-13 16:58:00,20.5,6.7,30.14,NNE,22,1.3,4.7,55,0.00,,,0.00,WUHU21623XXSP,2013-01-14 00:58:00,
2013-01-13 17:03:00,20.3,6.6,30.14,NW,315,2.7,4.7,55,0.00,,,0.00,WUHU21623XXSP,2013-01-14 01:03:00,
2013-01-13 17:08:00,20.1,6.4,30.14,NE,45,3.1,3.1,55,0.00,,,0.00,WUHU21623XXSP,2013-01-14 01:08:00,
2013-01-13 17:13:00,19.6,6.1,30.14,NW,315,3.1,3.1,55,0.00,,,0.00,WUHU21623XXSP,2013-01-14 01:13:00,
2013-01-13 17:18:00,19.6,5.9,30.14,NNW,337,3.8,3.8,55,0.00,,,0.00,WUHU21623XXSP,2013-01-14 01:18:00,
2013-01-13 17:23:00,19.4,5.7,30.14,North,0,0.0,3.8,55,0.00,,,0.00,WUHU21623XXSP,2013-01-14 01:23:00,
2013-01-13 17:28:00,19.2,6.0,30.15,North,0,0.0,0.0,56,0.00,,,0.00,WUHU21623XXSP,2013-01-14 01:28:00,
2013-01-13 17:33:00,19.0,5.4,30.14,North,0,4.3,4.3,55,0.00,,,0.00,WUHU21623XXSP,2013-01-14 01:33:00,
2013-01-13 17:39:00,18.7,5.5,30.15,NNE,22,2.9,4.3,56,0.00,,,0.00,WUHU21623XXSP,2013-01-14 01:39:00,
2013-01-13 17:44:00,18.3,5.1,30.15,NE,45,2.5,2.9,56,0.00,,,0.00,WUHU21623XXSP,2013-01-14 01:44:00,
2013-01-13 17:49:00,18.1,5.0,30.15,ENE,67,1.1,2.5,56,0.00,,,0.00,WUHU21623XXSP,2013-01-14 01:49:00,
2013-01-13 17:54:00,18.1,5.0,30.16,NNE,22,3.1,3.1,56,0.00,,,0.00,WUHU21623XXSP,2013-01-14 01:54:00,
2013-01-13 18:02:00,17.8,4.7,30.16,North,0,0.0,3.1,56,0.00,,,0.00,WUHU21623XXSP,2013-01-14 02:02:00,
2013-01-13 18:07:00,17.8,4.7,30.16,ENE,67,0.0,0.0,56,0.00,,,0.00,WUHU21623XXSP,2013-01-14 02:07:00,
2013-01-13 18:12:00,17.4,4.7,30.16,WNW,292,0.0,0.0,56,0.00,,,0.00,WUHU21623XXSP,2013-01-14 02:12:00,
2013-01-13 18:17:00,17.4,4.3,30.16,NNE,22,2.0,2.0,56,0.00,,,0.00,WUHU21623XXSP,2013-01-14 02:17:00,
2013-01-13 18:22:00,17.2,4.1,30.16,NNE,22,4.5,4.5,56,0.00,,,0.00,WUHU21623XXSP,2013-01-14 02:22:00,
2013-01-13 18:27:00,16.9,3.8,30.16,NE,45,3.8,4.5,56,0.00,,,0.00,WUHU21623XXSP,2013-01-14 02:27:00,
2013-01-13 18:32:00,16.9,3.8,30.17,NW,315,7.4,7.4,56,0.00,,,0.00,WUHU21623XXSP,2013-01-14 02:32:00,
2013-01-13 18:37:00,16.7,4.0,30.17,NNE,22,1.6,7.4,57,0.00,,,0.00,WUHU21623XXSP,2013-01-14 02:37:00,
2013-01-13 18:42:00,16.5,3.8,30.17,ENE,67,2.2,2.2,57,0.00,,,0.00,WUHU21623XXSP,2013-01-14 02:42:00,
2013-01-13 18:47:00,16.3,3.7,30.17,West,270,0.0,2.2,57,0.00,,,0.00,WUHU21623XXSP,2013-01-14 02:47:00,
2013-01-13 18:52:00,16.2,3.7,30.17,WNW,292,2.2,2.2,57,0.00,,,0.00,WUHU21623XXSP,2013-01-14 02:52:00,
2013-01-13 18:57:00,16.2,3.5,30.17,WNW,292,0.0,2.2,57,0.00,,,0.00,WUHU21623XXSP,2013-01-14 02:57:00,
2013-01-13 19:04:00,15.4,2.8,30.18,SSE,157,0.0,0.0,57,0.00,,,0.00,WUHU21623XXSP,2013-01-14 03:04:00,
2013-01-13 19:13:00,14.9,2.3,30.18,West,270,0.0,0.0,57,0.00,,,0.00,WUHU21623XXSP,2013-01-14 03:13:00,
2013-01-13 19:18:00,14.7,2.1,30.18,WNW,292,2.0,2.0,57,0.00,,,0.00,WUHU21623XXSP,2013-01-14 03:18:00,
2013-01-13 19:23:00,14.5,2.0,30.18,WNW,292,0.0,2.0,57,0.00,,,0.00,WUHU21623XXSP,2013-01-14 03:23:00,
2013-01-13 19:30:00,14.2,1.6,30.18,WNW,292,1.6,1.6,57,0.00,,,0.00,WUHU21623XXSP,2013-01-14 03:30:00,
2013-01-13 19:35:00,14.2,2.0,30.19,North,0,0.0,1.6,58,0.00,,,0.00,WUHU21623XXSP,2013-01-14 03:35:00,
2013-01-13 19:40:00,13.8,1.7,30.19,WNW,292,0.0,0.0,58,0.00,,,0.00,WUHU21623XXSP,2013-01-14 03:40:00,
2013-01-13 19:45:00,13.6,1.5,30.19,WNW,292,0.0,0.0,58,0.00,,,0.00,WUHU21623XXSP,2013-01-14 03:45:00,
2013-01-13 19:50:00,13.6,1.5,30.19,WNW,292,0.0,0.0,58,0.00,,,0.00,WUHU21623XXSP,2013-01-14 03:50:00,
2013-01-13 19:55:00,13.6,1.5,30.19,NNW,337,0.0,0.0,58,0.00,,,0.00,WUHU21623XXSP,2013-01-14 03:55:00,
2013-01-13 20:00:00,13.3,1.1,30.19,West,270,0.0,0.0,58,0.00,,,0.00,WUHU21623XXSP,2013-01-14 04:00:00,
2013-01-13 20:05:00,13.1,1.0,30.19,West,270,0.0,0.0,58,0.00,,,0.00,WUHU21623XXSP,2013-01-14 04:05:00,
2013-01-13 20:13:00,12.9,0.8,30.20,SW,225,0.0,0.0,58,0.00,,,0.00,WUHU21623XXSP,2013-01-14 04:13:00,
2013-01-13 20:23:00,12.7,1.0,30.20,WNW,292,0.0,0.0,59,0.00,,,0.00,WUHU21623XXSP,2013-01-14 04:23:00,
2013-01-13 20:28:00,12.7,1.0,30.20,WNW,292,0.0,0.0,59,0.00,,,0.00,WUHU21623XXSP,2013-01-14 04:28:00,
2013-01-13 20:33:00,12.7,1.0,30.20,WNW,292,0.0,0.0,59,0.00,,,0.00,WUHU21623XXSP,2013-01-14 04:33:00,
2013-01-13 20:38:00,12.6,0.8,30.20,WNW,292,0.0,0.0,59,0.00,,,0.00,WUHU21623XXSP,2013-01-14 04:38:00,
2013-01-13 20:45:00,12.4,0.6,30.20,WNW,292,0.0,0.0,59,0.00,,,0.00,WUHU21623XXSP,2013-01-14 04:45:00,
2013-01-13 20:50:00,12.2,0.5,30.20,East,90,0.0,0.0,59,0.00,,,0.00,WUHU21623XXSP,2013-01-14 04:50:00,
2013-01-13 20:55:00,12.0,0.3,30.20,ENE,67,0.0,0.0,59,0.00,,,0.00,WUHU21623XXSP,2013-01-14 04:55:00,
2013-01-13 21:00:00,12.0,0.3,30.20,NE,45,0.0,0.0,59,0.00,,,0.00,WUHU21623XXSP,2013-01-14 05:00:00,
2013-01-13 21:01:00,11.8,0.7,30.21,West,270,0.0,0.0,60,0.00,,,0.00,WUHU21623XXSP,2013-01-14 05:01:00,
2013-01-13 21:03:00,11.8,0.7,30.21,West,270,0.0,0.0,60,0.00,,,0.00,WUHU21623XXSP,2013-01-14 05:03:00,
2013-01-13 21:08:00,11.7,0.5,30.21,NNE,22,0.0,0.0,60,0.00,,,0.00,WUHU21623XXSP,2013-01-14 05:08:00,
2013-01-13 21:15:00,11.5,0.2,30.20,North,0,0.0,0.0,60,0.00,,,0.00,WUHU21623XXSP,2013-01-14 05:15:00,
2013-01-13 21:23:00,11.1,-0.1,30.21,NNE,22,0.0,0.0,60,0.00,,,0.00,WUHU21623XXSP,2013-01-14 05:23:00,
2013-01-13 21:30:00,10.9,-0.3,30.21,SE,135,0.0,0.0,60,0.00,,,0.00,WUHU21623XXSP,2013-01-14 05:30:00,
2013-01-13 21:35:00,10.6,-0.4,30.21,NNW,337,0.0,0.0,59,0.00,,,0.00,WUHU21623XXSP,2013-01-14 05:35:00,
2013-01-13 21:40:00,10.2,-0.9,30.21,SW,225,0.0,0.0,60,0.00,,,0.00,WUHU21623XXSP,2013-01-14 05:40:00,
2013-01-13 21:45:00,10.2,-0.9,30.21,WNW,292,0.0,0.0,60,0.00,,,0.00,WUHU21623XXSP,2013-01-14 05:45:00,
2013-01-13 21:51:00,10.0,-1.1,30.21,North,0,0.0,0.0,60,0.00,,,0.00,WUHU21623XXSP,2013-01-14 05:51:00,
2013-01-13 21:56:00,10.0,-1.1,30.22,NNW,337,0.0,0.0,60,0.00,,,0.00,WUHU21623XXSP,2013-01-14 05:56:00,
2013-01-13 22:01:00,9.7,-1.5,30.22,SE,135,0.0,0.0,60,0.00,,,0.00,WUHU21623XXSP,2013-01-14 06:01:00,
2013-01-13 22:08:00,9.5,-1.3,30.22,SE,135,0.0,0.0,61,0.00,,,0.00,WUHU21623XXSP,2013-01-14 06:08:00,
2013-01-13 22:13:00,9.5,-1.3,30.22,SE,135,0.0,0.0,61,0.00,,,0.00,WUHU21623XXSP,2013-01-14 06:13:00,
2013-01-13 22:19:00,9.1,-1.7,30.23,SE,135,0.0,0.0,61,0.00,,,0.00,WUHU21623XXSP,2013-01-14 06:19:00,
2013-01-13 22:24:00,9.1,-1.7,30.22,NE,45,0.0,0.0,61,0.00,,,0.00,WUHU21623XXSP,2013-01-14 06:24:00,
2013-01-13 22:30:00,8.8,-2.1,30.22,NE,45,0.0,0.0,61,0.00,,,0.00,WUHU21623XXSP,2013-01-14 06:30:00,
2013-01-13 22:35:00,8.6,-2.2,30.22,ENE,67,0.0,0.0,61,0.00,,,0.00,WUHU21623XXSP,2013-01-14 06:35:00,
2013-01-13 22:43:00,8.4,-2.4,30.22,NE,45,0.0,0.0,61,0.00,,,0.00,WUHU21623XXSP,2013-01-14 06:43:00,
2013-01-13 22:48:00,8.2,-2.6,30.22,NNE,22,0.0,0.0,61,0.00,,,0.00,WUHU21623XXSP,2013-01-14 06:48:00,
2013-01-13 22:53:00,7.9,-2.9,30.22,NNE,22,0.0,0.0,61,0.00,,,0.00,WUHU21623XXSP,2013-01-14 06:53:00,
2013-01-13 23:00:00,7.5,-3.2,30.23,ESE,112,0.0,0.0,61,0.00,,,0.00,WUHU21623XXSP,2013-01-14 07:00:00,
2013-01-13 23:05:00,7.5,-3.2,30.23,NNE,22,0.0,0.0,61,0.00,,,0.00,WUHU21623XXSP,2013-01-14 07:05:00,
2013-01-13 23:10:00,7.2,-3.5,30.23,SE,135,0.0,0.0,62,0.00,,,0.00,WUHU21623XXSP,2013-01-14 07:10:00,
2013-01-13 23:15:00,7.0,-3.4,30.22,SE,135,0.0,0.0,62,0.00,,,0.00,WUHU21623XXSP,2013-01-14 07:15:00,
2013-01-13 23:21:00,6.6,-3.7,30.23,NNE,22,0.0,0.0,62,0.00,,,0.00,WUHU21623XXSP,2013-01-14 07:21:00,
2013-01-13 23:27:00,6.4,-3.9,30.22,SE,135,0.0,0.0,62,0.00,,,0.00,WUHU21623XXSP,2013-01-14 07:27:00,
2013-01-13 23:32:00,6.3,-3.9,30.23,SE,135,0.0,0.0,62,0.00,,,0.00,WUHU21623XXSP,2013-01-14 07:32:00,
2013-01-13 23:37:00,6.1,-4.3,30.23,NE,45,0.0,0.0,62,0.00,,,0.00,WUHU21623XXSP,2013-01-14 07:37:00,
2013-01-13 23:45:00,5.7,-4.6,30.23,SE,135,0.0,0.0,62,0.00,,,0.00,WUHU21623XXSP,2013-01-14 07:45:00,
2013-01-13 23:50:00,5.5,-4.6,30.24,ESE,112,0.0,0.0,62,0.00,,,0.00,WUHU21623XXSP,2013-01-14 07:50:00,
2013-01-13 23:55:00,5.5,-4.8,30.23,North,0,0.0,0.0,62,0.00,,,0.00,WUHU21623XXSP,2013-01-14 07:55:00,